sensor_id;sensor_type;location;lat;lon;timestamp;P1;durP1;ratioP1;P2;durP2;ratioP2
1024;SDS011;501;48.214;11.350;2022-07-10T00:00:34;8.50;;;4.30;;
1024;SDS011;501;48.214;11.350;2022-07-10T00:03:01;4.53;;;4.13;;
1024;SDS011;501;48.214;11.350;2022-07-10T00:05:27;6.63;;;4.77;;
1024;SDS011;501;48.214;11.350;2022-07-10T00:07:56;5.10;;;4.60;;
1024;SDS011;501;48.214;11.350;2022-07-10T00:10:22;4.60;;;4.20;;
1024;SDS011;501;48.214;11.350;2022-07-10T00:12:48;5.07;;;4.77;;
1024;SDS011;501;48.214;11.350;2022-07-10T00:15:15;5.20;;;4.80;;
1024;SDS011;501;48.214;11.350;2022-07-10T00:17:42;6.23;;;5.10;;
1024;SDS011;501;48.214;11.350;2022-07-10T00:20:09;5.50;;;5.10;;
1024;SDS011;501;48.214;11.350;2022-07-10T00:22:36;6.70;;;5.50;;
1024;SDS011;501;48.214;11.350;2022-07-10T00:25:03;6.10;;;5.40;;
1024;SDS011;501;48.214;11.350;2022-07-10T00:27:30;6.23;;;5.73;;
1024;SDS011;501;48.214;11.350;2022-07-10T00:29:55;6.40;;;5.90;;
1024;SDS011;501;48.214;11.350;2022-07-10T00:32:21;7.23;;;6.60;;
1024;SDS011;501;48.214;11.350;2022-07-10T00:34:47;6.70;;;6.10;;
1024;SDS011;501;48.214;11.350;2022-07-10T00:37:13;7.33;;;6.63;;
1024;SDS011;501;48.214;11.350;2022-07-10T00:39:38;6.67;;;6.17;;
1024;SDS011;501;48.214;11.350;2022-07-10T00:42:08;7.37;;;6.67;;
1024;SDS011;501;48.214;11.350;2022-07-10T00:44:34;6.43;;;5.80;;
1024;SDS011;501;48.214;11.350;2022-07-10T00:47:01;6.47;;;5.87;;
1024;SDS011;501;48.214;11.350;2022-07-10T00:49:31;8.33;;;5.73;;
1024;SDS011;501;48.214;11.350;2022-07-10T00:52:01;6.67;;;6.10;;
1024;SDS011;501;48.214;11.350;2022-07-10T00:54:29;6.27;;;5.77;;
1024;SDS011;501;48.214;11.350;2022-07-10T00:56:56;8.33;;;6.17;;
1024;SDS011;501;48.214;11.350;2022-07-10T00:59:22;5.60;;;5.20;;
1024;SDS011;501;48.214;11.350;2022-07-10T01:01:49;6.97;;;6.37;;
1024;SDS011;501;48.214;11.350;2022-07-10T01:04:15;7.50;;;6.80;;
1024;SDS011;501;48.214;11.350;2022-07-10T01:06:41;6.80;;;6.20;;
1024;SDS011;501;48.214;11.350;2022-07-10T01:09:06;6.67;;;6.07;;
1024;SDS011;501;48.214;11.350;2022-07-10T01:11:33;8.20;;;6.63;;
1024;SDS011;501;48.214;11.350;2022-07-10T01:14:00;7.00;;;6.37;;
1024;SDS011;501;48.214;11.350;2022-07-10T01:16:29;7.20;;;6.50;;
1024;SDS011;501;48.214;11.350;2022-07-10T01:18:56;6.90;;;6.30;;
1024;SDS011;501;48.214;11.350;2022-07-10T01:21:22;7.80;;;6.77;;
1024;SDS011;501;48.214;11.350;2022-07-10T01:23:52;6.10;;;5.60;;
1024;SDS011;501;48.214;11.350;2022-07-10T01:26:17;8.03;;;7.33;;
1024;SDS011;501;48.214;11.350;2022-07-10T01:28:45;6.37;;;5.87;;
1024;SDS011;501;48.214;11.350;2022-07-10T01:31:13;7.50;;;6.87;;
1024;SDS011;501;48.214;11.350;2022-07-10T01:33:39;7.00;;;6.40;;
1024;SDS011;501;48.214;11.350;2022-07-10T01:36:05;7.30;;;6.60;;
1024;SDS011;501;48.214;11.350;2022-07-10T01:38:32;7.60;;;7.00;;
1024;SDS011;501;48.214;11.350;2022-07-10T01:40:57;7.30;;;6.80;;
1024;SDS011;501;48.214;11.350;2022-07-10T01:43:23;7.20;;;6.60;;
1024;SDS011;501;48.214;11.350;2022-07-10T01:45:49;6.60;;;6.10;;
1024;SDS011;501;48.214;11.350;2022-07-10T01:48:16;6.93;;;6.33;;
1024;SDS011;501;48.214;11.350;2022-07-10T01:50:41;7.00;;;6.40;;
1024;SDS011;501;48.214;11.350;2022-07-10T01:53:08;7.07;;;6.47;;
1024;SDS011;501;48.214;11.350;2022-07-10T01:55:34;7.50;;;6.13;;
1024;SDS011;501;48.214;11.350;2022-07-10T01:57:59;6.53;;;5.93;;
1024;SDS011;501;48.214;11.350;2022-07-10T02:00:25;7.23;;;6.63;;
1024;SDS011;501;48.214;11.350;2022-07-10T02:02:51;7.30;;;6.70;;
1024;SDS011;501;48.214;11.350;2022-07-10T02:05:35;6.97;;;6.37;;
1024;SDS011;501;48.214;11.350;2022-07-10T02:08:00;6.77;;;6.17;;
1024;SDS011;501;48.214;11.350;2022-07-10T02:10:28;7.40;;;6.70;;
1024;SDS011;501;48.214;11.350;2022-07-10T02:12:57;7.10;;;6.50;;
1024;SDS011;501;48.214;11.350;2022-07-10T02:15:23;6.97;;;6.37;;
1024;SDS011;501;48.214;11.350;2022-07-10T02:17:49;7.20;;;6.47;;
1024;SDS011;501;48.214;11.350;2022-07-10T02:20:15;7.70;;;6.97;;
1024;SDS011;501;48.214;11.350;2022-07-10T02:22:41;7.70;;;7.10;;
1024;SDS011;501;48.214;11.350;2022-07-10T02:25:07;8.90;;;6.93;;
1024;SDS011;501;48.214;11.350;2022-07-10T02:27:33;6.90;;;6.30;;
1024;SDS011;501;48.214;11.350;2022-07-10T02:29:58;10.23;;;7.07;;
1024;SDS011;501;48.214;11.350;2022-07-10T02:32:24;10.23;;;7.17;;
1024;SDS011;501;48.214;11.350;2022-07-10T02:34:50;6.93;;;6.10;;
1024;SDS011;501;48.214;11.350;2022-07-10T02:37:16;8.00;;;7.30;;
1024;SDS011;501;48.214;11.350;2022-07-10T02:39:41;8.40;;;7.60;;
1024;SDS011;501;48.214;11.350;2022-07-10T02:42:07;7.70;;;6.97;;
1024;SDS011;501;48.214;11.350;2022-07-10T02:44:32;7.53;;;6.93;;
1024;SDS011;501;48.214;11.350;2022-07-10T02:46:58;7.93;;;7.13;;
1024;SDS011;501;48.214;11.350;2022-07-10T02:49:24;8.37;;;7.63;;
1024;SDS011;501;48.214;11.350;2022-07-10T02:51:49;8.77;;;8.07;;
1024;SDS011;501;48.214;11.350;2022-07-10T02:54:15;8.40;;;7.60;;
1024;SDS011;501;48.214;11.350;2022-07-10T02:56:41;8.90;;;8.20;;
1024;SDS011;501;48.214;11.350;2022-07-10T02:59:07;8.70;;;8.00;;
1024;SDS011;501;48.214;11.350;2022-07-10T03:01:33;9.37;;;8.47;;
1024;SDS011;501;48.214;11.350;2022-07-10T03:03:58;8.70;;;8.00;;
1024;SDS011;501;48.214;11.350;2022-07-10T03:06:26;8.47;;;7.67;;
1024;SDS011;501;48.214;11.350;2022-07-10T03:08:52;9.47;;;8.67;;
1024;SDS011;501;48.214;11.350;2022-07-10T03:11:17;8.70;;;7.90;;
1024;SDS011;501;48.214;11.350;2022-07-10T03:13:46;8.50;;;7.80;;
1024;SDS011;501;48.214;11.350;2022-07-10T03:16:12;9.27;;;8.37;;
1024;SDS011;501;48.214;11.350;2022-07-10T03:18:37;9.17;;;8.27;;
1024;SDS011;501;48.214;11.350;2022-07-10T03:21:06;10.23;;;9.20;;
1024;SDS011;501;48.214;11.350;2022-07-10T03:23:34;9.00;;;8.20;;
1024;SDS011;501;48.214;11.350;2022-07-10T03:26:00;10.40;;;8.80;;
1024;SDS011;501;48.214;11.350;2022-07-10T03:28:25;9.03;;;7.43;;
1024;SDS011;501;48.214;11.350;2022-07-10T03:30:51;9.57;;;8.77;;
1024;SDS011;501;48.214;11.350;2022-07-10T03:33:17;8.40;;;7.60;;
1024;SDS011;501;48.214;11.350;2022-07-10T03:35:43;12.20;;;8.47;;
1024;SDS011;501;48.214;11.350;2022-07-10T03:38:08;9.03;;;8.10;;
1024;SDS011;501;48.214;11.350;2022-07-10T03:40:34;8.80;;;7.90;;
1024;SDS011;501;48.214;11.350;2022-07-10T03:43:00;9.43;;;8.73;;
1024;SDS011;501;48.214;11.350;2022-07-10T03:45:25;9.23;;;8.37;;
1024;SDS011;501;48.214;11.350;2022-07-10T03:47:51;10.07;;;9.00;;
1024;SDS011;501;48.214;11.350;2022-07-10T03:50:16;9.03;;;8.23;;
1024;SDS011;501;48.214;11.350;2022-07-10T03:52:42;10.30;;;9.17;;
1024;SDS011;501;48.214;11.350;2022-07-10T03:55:09;10.63;;;9.60;;
1024;SDS011;501;48.214;11.350;2022-07-10T03:57:35;9.30;;;8.60;;
1024;SDS011;501;48.214;11.350;2022-07-10T04:00:19;11.57;;;8.43;;
1024;SDS011;501;48.214;11.350;2022-07-10T04:02:47;9.30;;;8.50;;
1024;SDS011;501;48.214;11.350;2022-07-10T04:05:13;9.87;;;9.00;;
1024;SDS011;501;48.214;11.350;2022-07-10T04:07:39;9.00;;;8.20;;
1024;SDS011;501;48.214;11.350;2022-07-10T04:10:05;9.33;;;8.50;;
1024;SDS011;501;48.214;11.350;2022-07-10T04:12:31;8.80;;;8.10;;
1024;SDS011;501;48.214;11.350;2022-07-10T04:14:57;9.30;;;8.30;;
1024;SDS011;501;48.214;11.350;2022-07-10T04:17:23;8.67;;;7.93;;
1024;SDS011;501;48.214;11.350;2022-07-10T04:19:48;8.20;;;7.60;;
1024;SDS011;501;48.214;11.350;2022-07-10T04:22:14;9.30;;;8.50;;
1024;SDS011;501;48.214;11.350;2022-07-10T04:24:40;9.17;;;8.33;;
1024;SDS011;501;48.214;11.350;2022-07-10T04:27:05;8.17;;;7.47;;
1024;SDS011;501;48.214;11.350;2022-07-10T04:29:31;9.07;;;8.20;;
1024;SDS011;501;48.214;11.350;2022-07-10T04:31:57;8.57;;;7.77;;
1024;SDS011;501;48.214;11.350;2022-07-10T04:34:23;8.20;;;7.40;;
1024;SDS011;501;48.214;11.350;2022-07-10T04:36:48;9.60;;;8.83;;
1024;SDS011;501;48.214;11.350;2022-07-10T04:39:16;9.90;;;9.00;;
1024;SDS011;501;48.214;11.350;2022-07-10T04:41:45;8.97;;;8.20;;
1024;SDS011;501;48.214;11.350;2022-07-10T04:44:10;8.17;;;7.47;;
1024;SDS011;501;48.214;11.350;2022-07-10T04:46:36;8.70;;;8.00;;
1024;SDS011;501;48.214;11.350;2022-07-10T04:49:02;11.10;;;8.40;;
1024;SDS011;501;48.214;11.350;2022-07-10T04:53:59;8.60;;;7.90;;
1024;SDS011;501;48.214;11.350;2022-07-10T04:56:29;9.03;;;8.20;;
1024;SDS011;501;48.214;11.350;2022-07-10T04:58:55;8.90;;;8.03;;
1024;SDS011;501;48.214;11.350;2022-07-10T05:01:21;9.93;;;8.93;;
1024;SDS011;501;48.214;11.350;2022-07-10T05:03:46;10.60;;;9.70;;
1024;SDS011;501;48.214;11.350;2022-07-10T05:06:12;9.77;;;8.97;;
1024;SDS011;501;48.214;11.350;2022-07-10T05:08:38;11.20;;;10.10;;
1024;SDS011;501;48.214;11.350;2022-07-10T05:11:04;10.20;;;9.13;;
1024;SDS011;501;48.214;11.350;2022-07-10T05:13:30;10.80;;;9.80;;
1024;SDS011;501;48.214;11.350;2022-07-10T05:15:56;10.50;;;9.60;;
1024;SDS011;501;48.214;11.350;2022-07-10T05:18:21;10.23;;;9.33;;
1024;SDS011;501;48.214;11.350;2022-07-10T05:20:47;9.00;;;8.10;;
1024;SDS011;501;48.214;11.350;2022-07-10T05:23:14;11.00;;;9.90;;
1024;SDS011;501;48.214;11.350;2022-07-10T05:25:40;10.80;;;9.80;;
1024;SDS011;501;48.214;11.350;2022-07-10T05:28:06;11.43;;;10.33;;
1024;SDS011;501;48.214;11.350;2022-07-10T05:30:32;12.13;;;10.90;;
1024;SDS011;501;48.214;11.350;2022-07-10T05:32:58;11.93;;;10.70;;
1024;SDS011;501;48.214;11.350;2022-07-10T05:35:24;11.67;;;10.57;;
1024;SDS011;501;48.214;11.350;2022-07-10T05:37:51;12.20;;;10.37;;
1024;SDS011;501;48.214;11.350;2022-07-10T05:40:17;14.33;;;10.37;;
1024;SDS011;501;48.214;11.350;2022-07-10T05:42:43;11.33;;;10.20;;
1024;SDS011;501;48.214;11.350;2022-07-10T05:45:09;11.80;;;10.60;;
1024;SDS011;501;48.214;11.350;2022-07-10T05:47:36;12.17;;;10.97;;
1024;SDS011;501;48.214;11.350;2022-07-10T05:50:01;13.07;;;10.83;;
1024;SDS011;501;48.214;11.350;2022-07-10T05:52:27;13.07;;;10.63;;
1024;SDS011;501;48.214;11.350;2022-07-10T05:54:53;11.90;;;10.67;;
1024;SDS011;501;48.214;11.350;2022-07-10T05:57:20;12.10;;;11.00;;
1024;SDS011;501;48.214;11.350;2022-07-10T05:59:48;11.87;;;10.80;;
1024;SDS011;501;48.214;11.350;2022-07-10T06:02:14;11.57;;;10.47;;
1024;SDS011;501;48.214;11.350;2022-07-10T06:04:41;12.67;;;11.57;;
1024;SDS011;501;48.214;11.350;2022-07-10T06:07:07;13.23;;;12.03;;
1024;SDS011;501;48.214;11.350;2022-07-10T06:09:33;13.23;;;11.90;;
1024;SDS011;501;48.214;11.350;2022-07-10T06:11:59;12.87;;;11.67;;
1024;SDS011;501;48.214;11.350;2022-07-10T06:14:25;15.30;;;12.70;;
1024;SDS011;501;48.214;11.350;2022-07-10T06:16:51;12.87;;;11.77;;
1024;SDS011;501;48.214;11.350;2022-07-10T06:19:16;13.07;;;11.87;;
1024;SDS011;501;48.214;11.350;2022-07-10T06:21:43;11.93;;;10.83;;
1024;SDS011;501;48.214;11.350;2022-07-10T06:24:09;13.10;;;11.87;;
1024;SDS011;501;48.214;11.350;2022-07-10T06:26:34;12.30;;;11.10;;
1024;SDS011;501;48.214;11.350;2022-07-10T06:29:03;12.77;;;11.57;;
1024;SDS011;501;48.214;11.350;2022-07-10T06:31:32;12.50;;;11.50;;
1024;SDS011;501;48.214;11.350;2022-07-10T06:33:57;11.77;;;10.70;;
1024;SDS011;501;48.214;11.350;2022-07-10T06:36:23;12.20;;;11.00;;
1024;SDS011;501;48.214;11.350;2022-07-10T06:38:51;12.27;;;11.03;;
1024;SDS011;501;48.214;11.350;2022-07-10T06:41:16;10.17;;;9.27;;
1024;SDS011;501;48.214;11.350;2022-07-10T06:43:42;10.10;;;9.30;;
1024;SDS011;501;48.214;11.350;2022-07-10T06:46:08;12.83;;;10.20;;
1024;SDS011;501;48.214;11.350;2022-07-10T06:48:34;10.63;;;9.73;;
1024;SDS011;501;48.214;11.350;2022-07-10T06:51:02;10.10;;;9.20;;
1024;SDS011;501;48.214;11.350;2022-07-10T06:53:30;8.93;;;8.10;;
1024;SDS011;501;48.214;11.350;2022-07-10T06:55:56;9.70;;;8.90;;
1024;SDS011;501;48.214;11.350;2022-07-10T06:58:21;9.93;;;8.93;;
1024;SDS011;501;48.214;11.350;2022-07-10T07:00:47;9.67;;;8.67;;
1024;SDS011;501;48.214;11.350;2022-07-10T07:03:13;9.70;;;8.70;;
1024;SDS011;501;48.214;11.350;2022-07-10T07:05:38;8.27;;;7.50;;
1024;SDS011;501;48.214;11.350;2022-07-10T07:08:04;13.03;;;8.23;;
1024;SDS011;501;48.214;11.350;2022-07-10T07:10:30;9.47;;;8.67;;
1024;SDS011;501;48.214;11.350;2022-07-10T07:12:56;9.13;;;8.20;;
1024;SDS011;501;48.214;11.350;2022-07-10T07:15:21;8.07;;;7.37;;
1024;SDS011;501;48.214;11.350;2022-07-10T07:17:49;8.50;;;7.80;;
1024;SDS011;501;48.214;11.350;2022-07-10T07:20:36;8.60;;;7.83;;
1024;SDS011;501;48.214;11.350;2022-07-10T07:23:21;7.70;;;6.90;;
1024;SDS011;501;48.214;11.350;2022-07-10T07:25:47;11.83;;;7.40;;
1024;SDS011;501;48.214;11.350;2022-07-10T07:28:14;12.33;;;8.73;;
1024;SDS011;501;48.214;11.350;2022-07-10T07:30:40;8.10;;;7.40;;
1024;SDS011;501;48.214;11.350;2022-07-10T07:33:09;7.97;;;7.27;;
1024;SDS011;501;48.214;11.350;2022-07-10T07:35:35;7.60;;;6.90;;
1024;SDS011;501;48.214;11.350;2022-07-10T07:38:01;7.53;;;6.80;;
1024;SDS011;501;48.214;11.350;2022-07-10T07:40:27;7.30;;;6.50;;
1024;SDS011;501;48.214;11.350;2022-07-10T07:42:53;7.63;;;6.83;;
1024;SDS011;501;48.214;11.350;2022-07-10T07:45:20;7.10;;;6.30;;
1024;SDS011;501;48.214;11.350;2022-07-10T07:47:47;6.87;;;6.17;;
1024;SDS011;501;48.214;11.350;2022-07-10T07:50:17;6.40;;;5.80;;
1024;SDS011;501;48.214;11.350;2022-07-10T07:52:45;8.07;;;5.90;;
1024;SDS011;501;48.214;11.350;2022-07-10T07:55:11;9.27;;;5.40;;
1024;SDS011;501;48.214;11.350;2022-07-10T07:57:39;5.07;;;4.67;;
1024;SDS011;501;48.214;11.350;2022-07-10T08:00:05;6.70;;;6.10;;
1024;SDS011;501;48.214;11.350;2022-07-10T08:02:32;6.80;;;4.63;;
1024;SDS011;501;48.214;11.350;2022-07-10T08:04:58;4.97;;;4.53;;
1024;SDS011;501;48.214;11.350;2022-07-10T08:07:32;5.77;;;4.50;;
1024;SDS011;501;48.214;11.350;2022-07-10T08:09:59;4.93;;;4.50;;
1024;SDS011;501;48.214;11.350;2022-07-10T08:12:24;7.50;;;4.20;;
1024;SDS011;501;48.214;11.350;2022-07-10T08:14:50;4.13;;;3.73;;
1024;SDS011;501;48.214;11.350;2022-07-10T08:17:15;3.93;;;3.53;;
1024;SDS011;501;48.214;11.350;2022-07-10T08:19:41;4.70;;;4.30;;
1024;SDS011;501;48.214;11.350;2022-07-10T08:22:07;4.80;;;4.10;;
1024;SDS011;501;48.214;11.350;2022-07-10T08:24:32;7.63;;;4.17;;
1024;SDS011;501;48.214;11.350;2022-07-10T08:26:58;3.87;;;3.57;;
1024;SDS011;501;48.214;11.350;2022-07-10T08:29:23;5.83;;;3.80;;
1024;SDS011;501;48.214;11.350;2022-07-10T08:31:49;6.17;;;3.90;;
1024;SDS011;501;48.214;11.350;2022-07-10T08:34:15;3.90;;;3.50;;
1024;SDS011;501;48.214;11.350;2022-07-10T08:36:40;7.93;;;3.80;;
1024;SDS011;501;48.214;11.350;2022-07-10T08:39:06;6.57;;;4.80;;
1024;SDS011;501;48.214;11.350;2022-07-10T08:41:31;6.23;;;3.63;;
1024;SDS011;501;48.214;11.350;2022-07-10T08:43:59;7.43;;;3.60;;
1024;SDS011;501;48.214;11.350;2022-07-10T08:46:25;3.77;;;3.47;;
1024;SDS011;501;48.214;11.350;2022-07-10T08:48:53;5.93;;;3.03;;
1024;SDS011;501;48.214;11.350;2022-07-10T08:51:23;3.60;;;3.10;;
1024;SDS011;501;48.214;11.350;2022-07-10T08:53:59;3.40;;;2.90;;
1024;SDS011;501;48.214;11.350;2022-07-10T08:56:26;4.30;;;3.27;;
1024;SDS011;501;48.214;11.350;2022-07-10T08:58:51;3.20;;;2.90;;
1024;SDS011;501;48.214;11.350;2022-07-10T09:01:18;4.10;;;2.67;;
1024;SDS011;501;48.214;11.350;2022-07-10T09:03:48;3.70;;;2.70;;
1024;SDS011;501;48.214;11.350;2022-07-10T09:06:15;4.60;;;3.03;;
1024;SDS011;501;48.214;11.350;2022-07-10T09:08:44;3.30;;;3.00;;
1024;SDS011;501;48.214;11.350;2022-07-10T09:11:23;3.20;;;2.90;;
1024;SDS011;501;48.214;11.350;2022-07-10T09:13:51;3.77;;;2.87;;
1024;SDS011;501;48.214;11.350;2022-07-10T09:16:27;2.90;;;2.70;;
1024;SDS011;501;48.214;11.350;2022-07-10T09:18:58;4.07;;;3.10;;
1024;SDS011;501;48.214;11.350;2022-07-10T09:21:39;3.23;;;2.90;;
1024;SDS011;501;48.214;11.350;2022-07-10T09:24:07;3.40;;;3.10;;
1024;SDS011;501;48.214;11.350;2022-07-10T09:26:33;3.97;;;3.20;;
1024;SDS011;501;48.214;11.350;2022-07-10T09:29:05;6.70;;;3.33;;
1024;SDS011;501;48.214;11.350;2022-07-10T09:31:51;5.10;;;2.60;;
1024;SDS011;501;48.214;11.350;2022-07-10T09:34:39;4.70;;;2.93;;
1024;SDS011;501;48.214;11.350;2022-07-10T09:39:58;5.93;;;2.73;;
1024;SDS011;501;48.214;11.350;2022-07-10T09:42:44;3.13;;;2.17;;
1024;SDS011;501;48.214;11.350;2022-07-10T09:47:40;4.87;;;2.80;;
1024;SDS011;501;48.214;11.350;2022-07-10T09:50:26;5.53;;;2.53;;
1024;SDS011;501;48.214;11.350;2022-07-10T09:52:58;3.80;;;2.43;;
1024;SDS011;501;48.214;11.350;2022-07-10T09:55:26;3.77;;;2.40;;
1024;SDS011;501;48.214;11.350;2022-07-10T09:57:57;4.07;;;2.47;;
1024;SDS011;501;48.214;11.350;2022-07-10T10:00:41;2.80;;;2.50;;
1024;SDS011;501;48.214;11.350;2022-07-10T10:03:11;2.60;;;2.40;;
1024;SDS011;501;48.214;11.350;2022-07-10T10:05:44;4.13;;;2.17;;
1024;SDS011;501;48.214;11.350;2022-07-10T10:09:02;3.70;;;1.97;;
1024;SDS011;501;48.214;11.350;2022-07-10T10:11:20;3.20;;;2.10;;
1024;SDS011;501;48.214;11.350;2022-07-10T10:13:48;3.90;;;3.00;;
1024;SDS011;501;48.214;11.350;2022-07-10T10:16:15;2.30;;;1.90;;
1024;SDS011;501;48.214;11.350;2022-07-10T10:18:42;2.60;;;2.33;;
1024;SDS011;501;48.214;11.350;2022-07-10T10:21:27;2.47;;;2.27;;
1024;SDS011;501;48.214;11.350;2022-07-10T10:23:53;2.90;;;2.30;;
1024;SDS011;501;48.214;11.350;2022-07-10T10:26:21;3.63;;;2.50;;
1024;SDS011;501;48.214;11.350;2022-07-10T10:28:48;4.90;;;2.17;;
1024;SDS011;501;48.214;11.350;2022-07-10T10:31:16;1.90;;;1.80;;
1024;SDS011;501;48.214;11.350;2022-07-10T10:33:43;12.90;;;3.10;;
1024;SDS011;501;48.214;11.350;2022-07-10T10:36:11;4.20;;;2.43;;
1024;SDS011;501;48.214;11.350;2022-07-10T10:41:23;4.57;;;2.40;;
1024;SDS011;501;48.214;11.350;2022-07-10T10:46:33;2.10;;;1.90;;
1024;SDS011;501;48.214;11.350;2022-07-10T10:49:06;2.33;;;1.87;;
1024;SDS011;501;48.214;11.350;2022-07-10T10:54:28;2.83;;;2.40;;
1024;SDS011;501;48.214;11.350;2022-07-10T10:57:14;2.87;;;2.00;;
1024;SDS011;501;48.214;11.350;2022-07-10T10:59:50;2.23;;;2.03;;
1024;SDS011;501;48.214;11.350;2022-07-10T11:02:30;3.50;;;2.30;;
1024;SDS011;501;48.214;11.350;2022-07-10T11:13:18;2.03;;;1.80;;
1024;SDS011;501;48.214;11.350;2022-07-10T11:15:45;2.60;;;1.50;;
1024;SDS011;501;48.214;11.350;2022-07-10T11:18:12;3.50;;;2.13;;
1024;SDS011;501;48.214;11.350;2022-07-10T11:20:40;2.63;;;2.00;;
1024;SDS011;501;48.214;11.350;2022-07-10T11:31:05;3.40;;;1.90;;
1024;SDS011;501;48.214;11.350;2022-07-10T11:33:38;2.30;;;1.90;;
1024;SDS011;501;48.214;11.350;2022-07-10T11:36:12;2.90;;;1.90;;
1024;SDS011;501;48.214;11.350;2022-07-10T11:38:41;2.77;;;1.60;;
1024;SDS011;501;48.214;11.350;2022-07-10T11:41:18;1.60;;;1.50;;
1024;SDS011;501;48.214;11.350;2022-07-10T11:43:46;2.50;;;1.80;;
1024;SDS011;501;48.214;11.350;2022-07-10T11:46:26;1.70;;;1.47;;
1024;SDS011;501;48.214;11.350;2022-07-10T11:48:53;3.13;;;1.70;;
1024;SDS011;501;48.214;11.350;2022-07-10T11:51:31;3.43;;;1.70;;
1024;SDS011;501;48.214;11.350;2022-07-10T11:54:00;1.40;;;1.30;;
1024;SDS011;501;48.214;11.350;2022-07-10T11:56:28;3.20;;;1.90;;
1024;SDS011;501;48.214;11.350;2022-07-10T11:59:08;2.60;;;1.93;;
1024;SDS011;501;48.214;11.350;2022-07-10T12:01:35;2.80;;;1.60;;
1024;SDS011;501;48.214;11.350;2022-07-10T12:04:06;1.67;;;1.57;;
1024;SDS011;501;48.214;11.350;2022-07-10T12:06:37;2.40;;;1.80;;
1024;SDS011;501;48.214;11.350;2022-07-10T12:09:10;1.37;;;1.20;;
1024;SDS011;501;48.214;11.350;2022-07-10T12:11:40;3.40;;;1.50;;
1024;SDS011;501;48.214;11.350;2022-07-10T12:14:16;2.10;;;1.57;;
1024;SDS011;501;48.214;11.350;2022-07-10T12:16:47;1.70;;;1.60;;
1024;SDS011;501;48.214;11.350;2022-07-10T12:19:18;3.27;;;1.80;;
1024;SDS011;501;48.214;11.350;2022-07-10T12:22:04;4.20;;;2.10;;
1024;SDS011;501;48.214;11.350;2022-07-10T12:24:30;4.43;;;1.50;;
1024;SDS011;501;48.214;11.350;2022-07-10T12:26:56;2.60;;;1.97;;
1024;SDS011;501;48.214;11.350;2022-07-10T12:29:29;2.67;;;1.47;;
1024;SDS011;501;48.214;11.350;2022-07-10T12:31:57;2.00;;;1.53;;
1024;SDS011;501;48.214;11.350;2022-07-10T12:34:33;2.23;;;2.03;;
1024;SDS011;501;48.214;11.350;2022-07-10T12:37:06;2.90;;;1.70;;
1024;SDS011;501;48.214;11.350;2022-07-10T12:39:35;2.53;;;1.57;;
1024;SDS011;501;48.214;11.350;2022-07-10T12:42:04;1.70;;;1.57;;
1024;SDS011;501;48.214;11.350;2022-07-10T12:44:40;2.50;;;1.60;;
1024;SDS011;501;48.214;11.350;2022-07-10T12:47:17;2.30;;;1.40;;
1024;SDS011;501;48.214;11.350;2022-07-10T12:49:48;2.80;;;1.57;;
1024;SDS011;501;48.214;11.350;2022-07-10T12:52:27;1.67;;;1.57;;
1024;SDS011;501;48.214;11.350;2022-07-10T13:00:29;2.13;;;1.67;;
1024;SDS011;501;48.214;11.350;2022-07-10T13:03:02;1.70;;;1.47;;
1024;SDS011;501;48.214;11.350;2022-07-10T13:10:40;1.80;;;1.30;;
1024;SDS011;501;48.214;11.350;2022-07-10T13:13:06;2.10;;;1.60;;
1024;SDS011;501;48.214;11.350;2022-07-10T13:15:32;1.40;;;1.30;;
1024;SDS011;501;48.214;11.350;2022-07-10T13:18:04;2.17;;;1.97;;
1024;SDS011;501;48.214;11.350;2022-07-10T13:20:30;2.23;;;1.40;;
1024;SDS011;501;48.214;11.350;2022-07-10T13:22:56;4.67;;;1.40;;
1024;SDS011;501;48.214;11.350;2022-07-10T13:25:22;1.70;;;1.60;;
1024;SDS011;501;48.214;11.350;2022-07-10T13:27:47;3.40;;;1.40;;
1024;SDS011;501;48.214;11.350;2022-07-10T13:30:13;2.27;;;1.40;;
1024;SDS011;501;48.214;11.350;2022-07-10T13:32:41;1.50;;;1.40;;
1024;SDS011;501;48.214;11.350;2022-07-10T13:35:07;1.50;;;1.40;;
1024;SDS011;501;48.214;11.350;2022-07-10T13:37:34;2.40;;;1.70;;
1024;SDS011;501;48.214;11.350;2022-07-10T13:39:59;2.20;;;1.10;;
1024;SDS011;501;48.214;11.350;2022-07-10T13:42:25;4.10;;;1.33;;
1024;SDS011;501;48.214;11.350;2022-07-10T13:44:51;2.77;;;1.47;;
1024;SDS011;501;48.214;11.350;2022-07-10T13:47:17;1.53;;;1.27;;
1024;SDS011;501;48.214;11.350;2022-07-10T13:49:42;1.33;;;1.20;;
1024;SDS011;501;48.214;11.350;2022-07-10T13:52:08;1.63;;;1.27;;
1024;SDS011;501;48.214;11.350;2022-07-10T13:54:34;1.13;;;1.10;;
1024;SDS011;501;48.214;11.350;2022-07-10T13:56:59;2.10;;;1.40;;
1024;SDS011;501;48.214;11.350;2022-07-10T13:59:26;1.50;;;1.20;;
1024;SDS011;501;48.214;11.350;2022-07-10T14:01:52;2.30;;;1.43;;
1024;SDS011;501;48.214;11.350;2022-07-10T14:04:18;6.00;;;1.43;;
1024;SDS011;501;48.214;11.350;2022-07-10T14:06:43;2.40;;;1.40;;
1024;SDS011;501;48.214;11.350;2022-07-10T14:09:09;1.53;;;1.10;;
1024;SDS011;501;48.214;11.350;2022-07-10T14:11:34;1.40;;;1.07;;
1024;SDS011;501;48.214;11.350;2022-07-10T14:14:00;2.73;;;1.73;;
1024;SDS011;501;48.214;11.350;2022-07-10T14:16:26;1.30;;;1.10;;
1024;SDS011;501;48.214;11.350;2022-07-10T14:18:52;2.60;;;1.40;;
1024;SDS011;501;48.214;11.350;2022-07-10T14:21:19;1.93;;;1.27;;
1024;SDS011;501;48.214;11.350;2022-07-10T14:23:45;4.27;;;1.07;;
1024;SDS011;501;48.214;11.350;2022-07-10T14:26:13;1.30;;;1.20;;
1024;SDS011;501;48.214;11.350;2022-07-10T14:28:39;4.00;;;1.20;;
1024;SDS011;501;48.214;11.350;2022-07-10T14:31:05;2.90;;;1.37;;
1024;SDS011;501;48.214;11.350;2022-07-10T14:33:32;2.73;;;2.00;;
1024;SDS011;501;48.214;11.350;2022-07-10T14:35:59;1.70;;;0.93;;
1024;SDS011;501;48.214;11.350;2022-07-10T14:38:25;2.00;;;1.20;;
1024;SDS011;501;48.214;11.350;2022-07-10T14:40:51;1.43;;;1.00;;
1024;SDS011;501;48.214;11.350;2022-07-10T14:43:18;4.40;;;1.50;;
1024;SDS011;501;48.214;11.350;2022-07-10T14:45:45;1.43;;;1.27;;
1024;SDS011;501;48.214;11.350;2022-07-10T14:48:11;2.00;;;1.17;;
1024;SDS011;501;48.214;11.350;2022-07-10T14:50:39;2.40;;;1.20;;
1024;SDS011;501;48.214;11.350;2022-07-10T14:53:05;1.00;;;1.00;;
1024;SDS011;501;48.214;11.350;2022-07-10T14:55:32;1.87;;;0.90;;
1024;SDS011;501;48.214;11.350;2022-07-10T14:57:58;1.20;;;1.07;;
1024;SDS011;501;48.214;11.350;2022-07-10T15:00:23;1.33;;;0.87;;
1024;SDS011;501;48.214;11.350;2022-07-10T15:02:49;1.03;;;0.77;;
1024;SDS011;501;48.214;11.350;2022-07-10T15:05:14;1.83;;;1.20;;
1024;SDS011;501;48.214;11.350;2022-07-10T15:07:40;1.00;;;0.90;;
1024;SDS011;501;48.214;11.350;2022-07-10T15:10:06;4.00;;;1.07;;
1024;SDS011;501;48.214;11.350;2022-07-10T15:12:33;1.10;;;1.10;;
1024;SDS011;501;48.214;11.350;2022-07-10T15:15:01;1.33;;;0.87;;
1024;SDS011;501;48.214;11.350;2022-07-10T15:17:28;1.40;;;0.90;;
1024;SDS011;501;48.214;11.350;2022-07-10T15:19:54;0.80;;;0.80;;
1024;SDS011;501;48.214;11.350;2022-07-10T15:22:20;1.80;;;0.90;;
1024;SDS011;501;48.214;11.350;2022-07-10T15:24:46;1.50;;;1.00;;
1024;SDS011;501;48.214;11.350;2022-07-10T15:27:14;0.67;;;0.67;;
1024;SDS011;501;48.214;11.350;2022-07-10T15:29:40;0.80;;;0.80;;
1024;SDS011;501;48.214;11.350;2022-07-10T15:32:05;0.97;;;0.80;;
1024;SDS011;501;48.214;11.350;2022-07-10T15:34:31;0.87;;;0.70;;
1024;SDS011;501;48.214;11.350;2022-07-10T15:36:57;4.53;;;1.03;;
1024;SDS011;501;48.214;11.350;2022-07-10T15:39:22;4.30;;;0.83;;
1024;SDS011;501;48.214;11.350;2022-07-10T15:41:49;1.50;;;1.00;;
1024;SDS011;501;48.214;11.350;2022-07-10T15:44:15;1.10;;;1.00;;
1024;SDS011;501;48.214;11.350;2022-07-10T15:46:40;1.30;;;1.00;;
1024;SDS011;501;48.214;11.350;2022-07-10T15:49:09;2.20;;;1.00;;
1024;SDS011;501;48.214;11.350;2022-07-10T15:51:36;1.80;;;0.87;;
1024;SDS011;501;48.214;11.350;2022-07-10T15:54:02;1.20;;;1.10;;
1024;SDS011;501;48.214;11.350;2022-07-10T15:56:28;2.73;;;1.00;;
1024;SDS011;501;48.214;11.350;2022-07-10T15:58:53;2.87;;;0.70;;